Littlerock, Washington
Current Conditions -  °F | °C
As of 1:54 PM on Friday 24 Oct 2014 (Local Time) from KOLM Reporting Station
Scattered Clouds Scattered Clouds  
Wind Chill: 53°   Ceiling: Unl
Heat Index: 53°   Visibility: 10mi
Dew Point: 49°   Wind: 7mph
Humidity: 86%   Direction: 10°N
Pressure: 29.96"   Gusts: NA
Location:  46.9°N, 123.02°W
Report Text: KOLM 242054Z 01006KT 10SM SCT007 12/09 A2996 RMK AO2 SLP146 T01170094 58023
Loading
Personal Weather Stations






























Interactive Weather Map
Tropical Storm Tracking
New forecast layout! Learn more

10-Day Weather Forecast

Advertisements
Track Severe Weather on mobile